createdAt,value
2018-08-25T00:01:20.364Z,11.90
2018-08-25T00:03:47.359Z,11.94
2018-08-25T00:06:14.449Z,11.96
2018-08-25T00:08:41.431Z,11.99
2018-08-25T00:11:09.076Z,11.62
2018-08-25T00:13:36.097Z,12.00
2018-08-25T00:16:03.104Z,12.02
2018-08-25T00:18:30.100Z,12.04
2018-08-25T00:20:57.192Z,12.02
2018-08-25T00:23:24.275Z,12.03
2018-08-25T00:25:51.525Z,12.09
2018-08-25T00:28:18.522Z,12.11
2018-08-25T00:30:51.498Z,12.21
2018-08-25T00:33:18.539Z,12.26
2018-08-25T00:35:45.595Z,12.30
2018-08-25T00:38:12.695Z,12.35
2018-08-25T00:40:39.772Z,12.41
2018-08-25T00:43:07.005Z,12.44
2018-08-25T00:45:33.998Z,12.42
2018-08-25T00:48:00.988Z,12.42
2018-08-25T00:50:28.291Z,12.41
2018-08-25T00:52:55.807Z,12.41
2018-08-25T00:55:22.963Z,12.36
2018-08-25T00:57:50.203Z,12.33
2018-08-25T01:00:17.192Z,12.28
2018-08-25T01:02:44.172Z,12.23
2018-08-25T01:05:11.272Z,12.19
2018-08-25T01:07:38.359Z,12.17
2018-08-25T01:10:05.364Z,12.12
2018-08-25T01:12:32.377Z,12.05
2018-08-25T01:14:59.341Z,12.06
2018-08-25T01:17:26.295Z,12.03
2018-08-25T01:19:53.939Z,11.99
2018-08-25T01:22:20.916Z,11.97
2018-08-25T01:24:47.884Z,11.91
2018-08-25T01:27:15.300Z,11.86
2018-08-25T01:29:42.280Z,11.77
2018-08-25T01:32:17.464Z,11.74
2018-08-25T01:34:44.448Z,11.66
2018-08-25T01:37:11.431Z,11.70
2018-08-25T01:39:38.489Z,11.65
2018-08-25T01:42:05.499Z,11.62
2018-08-25T01:44:32.545Z,11.61
2018-08-25T01:47:03.205Z,11.56
2018-08-25T01:49:30.335Z,11.57
2018-08-25T01:51:57.379Z,11.60
2018-08-25T01:54:24.352Z,11.72
2018-08-25T01:56:51.372Z,11.74
2018-08-25T01:59:18.407Z,11.82
2018-08-25T02:01:45.448Z,11.94
2018-08-25T02:04:12.578Z,11.69
2018-08-25T02:06:40.323Z,11.58
2018-08-25T02:09:09.523Z,11.66
2018-08-25T02:11:36.517Z,11.86
2018-08-25T02:14:03.611Z,11.72
2018-08-25T02:16:30.688Z,11.78
2018-08-25T02:18:57.923Z,11.92
2018-08-25T02:21:24.981Z,11.92
2018-08-25T02:23:52.034Z,11.85
2018-08-25T02:26:19.011Z,11.69
2018-08-25T02:28:46.081Z,11.94
2018-08-25T02:31:13.168Z,11.92
2018-08-25T02:33:40.175Z,11.75
2018-08-25T02:36:07.158Z,11.54
2018-08-25T02:38:34.150Z,11.57
2018-08-25T02:41:01.176Z,11.69
2018-08-25T02:43:28.143Z,11.63
2018-08-25T02:45:55.217Z,11.50
2018-08-25T02:48:22.252Z,11.44
2018-08-25T02:50:49.244Z,11.36
2018-08-25T02:53:16.223Z,11.66
2018-08-25T02:55:43.211Z,11.66
2018-08-25T02:58:10.180Z,11.63
2018-08-25T03:00:37.238Z,11.63
2018-08-25T03:03:04.464Z,11.47
2018-08-25T03:05:31.518Z,11.50
2018-08-25T03:07:58.567Z,11.49
2018-08-25T03:10:25.562Z,11.46
2018-08-25T03:12:52.625Z,11.31
2018-08-25T03:15:19.628Z,11.41
2018-08-25T03:17:46.632Z,11.53
2018-08-25T03:20:13.811Z,11.44
2018-08-25T03:22:40.784Z,11.40
2018-08-25T03:25:07.776Z,11.40
2018-08-25T03:27:34.752Z,11.42
2018-08-25T03:30:01.770Z,11.23
2018-08-25T03:32:28.842Z,11.39
2018-08-25T03:34:55.815Z,11.09
2018-08-25T03:37:22.834Z,11.11
2018-08-25T03:39:49.864Z,11.08
2018-08-25T03:42:16.846Z,11.24
2018-08-25T03:44:43.823Z,11.41
2018-08-25T03:47:10.804Z,11.17
2018-08-25T03:49:37.788Z,11.08
2018-08-25T03:52:04.837Z,11.07
2018-08-25T03:54:31.834Z,11.00
2018-08-25T03:56:58.815Z,11.06
2018-08-25T03:59:25.883Z,11.47
2018-08-25T04:01:52.873Z,11.35
2018-08-25T04:04:20.009Z,11.28
2018-08-25T04:06:47.060Z,11.39
2018-08-25T04:09:15.371Z,11.43
2018-08-25T04:11:42.447Z,11.45
2018-08-25T04:14:10.791Z,11.15
2018-08-25T04:16:39.196Z,11.09
2018-08-25T04:19:06.708Z,10.99
2018-08-25T04:21:33.764Z,11.14
2018-08-25T04:24:01.119Z,11.08
2018-08-25T04:26:28.105Z,11.30
2018-08-25T04:28:55.069Z,11.40
2018-08-25T04:31:22.084Z,11.54
2018-08-25T04:33:49.097Z,11.55
2018-08-25T04:36:16.157Z,11.41
2018-08-25T04:38:43.122Z,11.34
2018-08-25T04:41:10.202Z,11.56
2018-08-25T04:43:37.256Z,11.55
2018-08-25T04:46:05.640Z,11.41
2018-08-25T04:48:32.707Z,11.37
2018-08-25T04:50:59.776Z,11.39
2018-08-25T04:53:26.760Z,11.46
2018-08-25T04:55:53.847Z,11.33
2018-08-25T04:58:21.104Z,11.56
2018-08-25T05:00:48.099Z,11.59
2018-08-25T05:03:15.116Z,11.64
2018-08-25T05:05:42.102Z,11.93
2018-08-25T05:08:09.075Z,11.76
2018-08-25T05:10:36.067Z,11.93
2018-08-25T05:13:03.397Z,12.10
2018-08-25T05:15:30.374Z,12.11
2018-08-25T05:17:57.452Z,12.05
2018-08-25T05:20:24.548Z,12.17
2018-08-25T05:22:51.517Z,11.93
2018-08-25T05:25:18.516Z,12.18
2018-08-25T05:27:45.501Z,12.10
2018-08-25T05:30:12.487Z,12.20
2018-08-25T05:32:39.518Z,12.18
2018-08-25T05:35:06.628Z,11.87
2018-08-25T05:37:33.963Z,11.94
2018-08-25T05:40:01.003Z,12.01
2018-08-25T05:42:27.971Z,12.06
2018-08-25T05:44:55.039Z,12.08
2018-08-25T05:47:22.020Z,12.18
2018-08-25T05:49:49.019Z,12.14
2018-08-25T05:52:16.221Z,12.27
2018-08-25T05:54:43.191Z,12.38
2018-08-25T05:57:10.152Z,12.33
2018-08-25T05:59:37.276Z,12.22
2018-08-25T06:02:04.737Z,12.16
2018-08-25T06:04:31.812Z,12.24
2018-08-25T06:06:59.859Z,12.40
2018-08-25T06:09:26.830Z,12.42
2018-08-25T06:11:53.799Z,12.55
2018-08-25T06:14:20.835Z,12.72
2018-08-25T06:16:47.805Z,12.86
2018-08-25T06:19:14.840Z,13.23
2018-08-25T06:21:42.060Z,13.28
2018-08-25T06:24:09.040Z,13.11
2018-08-25T06:26:36.007Z,13.04
2018-08-25T06:29:03.044Z,13.09
2018-08-25T06:31:30.025Z,13.07
2018-08-25T06:33:57.025Z,13.06
2018-08-25T06:36:24.011Z,13.38
2018-08-25T06:38:51.000Z,13.57
2018-08-25T06:41:18.282Z,13.51
2018-08-25T06:43:45.464Z,13.83
2018-08-25T06:46:12.451Z,13.89
2018-08-25T06:48:40.679Z,13.99
2018-08-25T06:51:07.667Z,13.96
2018-08-25T06:53:36.221Z,13.83
2018-08-25T06:56:03.376Z,13.85
2018-08-25T06:58:30.371Z,14.03
2018-08-25T07:00:57.394Z,13.94
2018-08-25T07:03:24.471Z,13.82
2018-08-25T07:05:51.699Z,14.02
2018-08-25T07:08:18.840Z,13.99
2018-08-25T07:10:46.187Z,13.95
2018-08-25T07:13:13.300Z,14.05
2018-08-25T07:15:40.313Z,14.20
2018-08-25T07:18:07.535Z,14.01
2018-08-25T07:20:34.509Z,14.15
2018-08-25T07:23:01.638Z,14.21
2018-08-25T07:25:29.028Z,14.17
2018-08-25T07:27:56.182Z,14.21
2018-08-25T07:30:23.297Z,14.32
2018-08-25T07:32:50.377Z,14.59
2018-08-25T07:35:17.389Z,14.70
2018-08-25T07:37:44.439Z,14.79
2018-08-25T07:40:11.808Z,14.76
2018-08-25T07:42:38.841Z,15.07
2018-08-25T07:45:06.097Z,14.85
2018-08-25T07:47:33.132Z,15.02
2018-08-25T07:50:00.167Z,14.69
2018-08-25T07:52:27.432Z,14.29
2018-08-25T07:54:54.437Z,14.15
2018-08-25T07:57:21.447Z,13.95
2018-08-25T07:59:48.485Z,13.69
2018-08-25T08:02:15.522Z,13.57
2018-08-25T08:04:42.554Z,13.41
2018-08-25T08:07:09.642Z,13.15
2018-08-25T08:09:36.677Z,12.98
2018-08-25T08:12:03.973Z,12.75
2018-08-25T08:14:31.088Z,12.64
2018-08-25T08:16:58.164Z,12.58
2018-08-25T08:19:25.244Z,12.53
2018-08-25T08:21:52.589Z,12.45
2018-08-25T08:24:19.648Z,12.43
2018-08-25T08:26:46.668Z,12.39
2018-08-25T08:29:13.713Z,12.51
2018-08-25T08:31:40.816Z,12.46
2018-08-25T08:34:07.919Z,12.56
2018-08-25T08:36:34.950Z,12.53
2018-08-25T08:39:02.024Z,12.61
2018-08-25T08:41:29.029Z,12.48
2018-08-25T08:43:56.123Z,12.55
2018-08-25T08:46:28.975Z,12.71
2018-08-25T08:48:56.352Z,12.52
2018-08-25T08:51:23.365Z,12.38
2018-08-25T08:53:50.446Z,12.29
2018-08-25T08:56:17.484Z,12.19
2018-08-25T08:58:44.495Z,12.19
2018-08-25T09:01:11.569Z,12.26
2018-08-25T09:03:39.158Z,12.23
2018-08-25T09:06:06.255Z,12.10
2018-08-25T09:08:34.251Z,12.09
2018-08-25T09:11:01.612Z,12.07
2018-08-25T09:13:28.706Z,12.00
2018-08-25T09:15:56.225Z,12.05
2018-08-25T09:18:23.260Z,12.10
2018-08-25T09:20:50.287Z,12.10
2018-08-25T09:23:17.299Z,12.11
2018-08-25T09:25:44.591Z,12.05
2018-08-25T09:28:11.656Z,12.01
2018-08-25T09:30:38.712Z,12.03
2018-08-25T09:33:05.843Z,11.95
2018-08-25T09:35:33.341Z,11.92
2018-08-25T09:38:00.369Z,11.98
2018-08-25T09:40:27.388Z,11.96
2018-08-25T09:42:54.419Z,11.94
2018-08-25T09:45:21.444Z,11.94
2018-08-25T09:47:48.424Z,12.08
2018-08-25T09:50:15.533Z,12.30
2018-08-25T09:52:42.656Z,12.52
2018-08-25T09:55:09.667Z,12.61
2018-08-25T09:57:37.543Z,12.72
2018-08-25T10:00:04.816Z,12.92
2018-08-25T10:02:31.899Z,13.16
2018-08-25T10:04:59.276Z,13.10
2018-08-25T10:07:26.257Z,13.01
2018-08-25T10:09:53.255Z,13.60
2018-08-25T10:12:20.300Z,13.36
2018-08-25T10:14:48.057Z,13.73
2018-08-25T10:17:15.036Z,14.02
2018-08-25T10:19:42.345Z,14.06
2018-08-25T10:22:09.516Z,14.08
2018-08-25T10:24:36.525Z,13.82
2018-08-25T10:27:03.790Z,14.03
2018-08-25T10:29:30.788Z,13.66
2018-08-25T10:31:58.338Z,13.79
2018-08-25T10:34:25.417Z,13.72
2018-08-25T10:36:52.487Z,13.94
2018-08-25T10:39:19.858Z,14.02
2018-08-25T10:41:47.039Z,13.59
2018-08-25T10:44:14.290Z,13.90
2018-08-25T10:46:41.684Z,13.68
2018-08-25T10:49:08.792Z,13.39
2018-08-25T10:51:36.222Z,13.33
2018-08-25T10:54:04.121Z,13.56
2018-08-25T10:56:31.287Z,13.79
2018-08-25T10:58:58.279Z,13.59
2018-08-25T11:01:25.309Z,13.43
2018-08-25T11:03:52.284Z,13.54
2018-08-25T11:06:19.246Z,13.40
2018-08-25T11:08:46.248Z,13.27
2018-08-25T11:11:13.238Z,13.30
2018-08-25T11:13:40.316Z,13.01
2018-08-25T11:16:07.332Z,12.73
2018-08-25T11:18:34.480Z,12.49
2018-08-25T11:21:01.519Z,11.98
2018-08-25T11:23:28.531Z,11.79
2018-08-25T11:25:55.524Z,11.74
2018-08-25T11:28:23.619Z,11.94
2018-08-25T11:30:51.423Z,12.15
2018-08-25T11:33:18.379Z,11.87
2018-08-25T11:35:45.628Z,11.68
2018-08-25T11:38:12.740Z,11.84
2018-08-25T11:40:39.699Z,12.14
2018-08-25T11:43:06.752Z,12.33
2018-08-25T11:45:33.751Z,12.16
2018-08-25T11:48:00.849Z,12.14
2018-08-25T11:50:27.949Z,12.12
2018-08-25T11:52:55.008Z,12.35
2018-08-25T11:55:22.012Z,12.47
2018-08-25T11:57:49.099Z,12.84
2018-08-25T12:00:16.559Z,12.68
2018-08-25T12:02:43.820Z,12.83
2018-08-25T12:05:10.827Z,12.99
2018-08-25T12:07:38.248Z,12.73
2018-08-25T12:10:05.297Z,12.57
2018-08-25T12:12:32.374Z,12.28
2018-08-25T12:15:06.530Z,12.09
2018-08-25T12:17:33.515Z,12.02
2018-08-25T12:20:00.488Z,12.00
2018-08-25T12:22:28.513Z,11.99
2018-08-25T12:24:56.162Z,12.26
2018-08-25T12:27:23.184Z,12.39
2018-08-25T12:29:50.258Z,12.73
2018-08-25T12:32:18.287Z,12.84
2018-08-25T12:34:46.724Z,13.08
2018-08-25T12:37:13.736Z,13.03
2018-08-25T12:39:40.988Z,12.83
2018-08-25T12:42:08.655Z,13.05
2018-08-25T12:44:35.651Z,12.85
2018-08-25T12:47:02.743Z,13.15
2018-08-25T12:49:30.353Z,12.90
2018-08-25T12:51:57.349Z,13.01
2018-08-25T12:54:24.424Z,13.06
2018-08-25T12:56:51.976Z,13.19
2018-08-25T12:59:19.296Z,13.45
2018-08-25T13:01:46.360Z,13.16
2018-08-25T13:04:13.304Z,13.42
2018-08-25T13:06:40.279Z,13.22
2018-08-25T13:09:09.139Z,13.03
2018-08-25T13:11:37.624Z,12.81
2018-08-25T13:14:05.119Z,12.73
2018-08-25T13:16:32.171Z,12.79
2018-08-25T13:18:59.404Z,12.85
2018-08-25T13:21:27.072Z,13.02
2018-08-25T13:23:54.520Z,13.31
2018-08-25T13:26:21.616Z,13.29
2018-08-25T13:28:48.675Z,13.22
2018-08-25T13:31:15.984Z,13.13
2018-08-25T13:33:43.044Z,13.04
2018-08-25T13:36:10.239Z,13.30
2018-08-25T13:38:37.256Z,13.51
2018-08-25T13:41:04.466Z,13.25
2018-08-25T13:43:31.896Z,13.34
2018-08-25T13:45:59.189Z,13.51
2018-08-25T13:48:26.192Z,13.21
2018-08-25T13:50:53.339Z,13.06
2018-08-25T13:53:20.516Z,13.12
2018-08-25T13:55:47.641Z,13.18
2018-08-25T13:58:15.012Z,13.17
2018-08-25T14:00:42.176Z,13.14
2018-08-25T14:03:09.353Z,13.23
2018-08-25T14:05:36.668Z,13.32
2018-08-25T14:08:03.704Z,13.37
2018-08-25T14:10:30.645Z,13.42
2018-08-25T14:12:57.915Z,13.35
2018-08-25T14:15:24.931Z,13.62
2018-08-25T14:20:33.400Z,13.59
2018-08-25T14:23:00.388Z,13.67
2018-08-25T14:25:27.683Z,13.70
2018-08-25T14:27:54.780Z,13.72
2018-08-25T14:30:21.771Z,13.77
2018-08-25T14:32:48.802Z,13.96
2018-08-25T14:35:16.316Z,14.15
2018-08-25T14:37:43.302Z,14.26
2018-08-25T14:40:10.308Z,14.19
2018-08-25T14:42:37.400Z,14.08
2018-08-25T14:45:05.571Z,14.24
2018-08-25T14:47:32.872Z,14.08
2018-08-25T14:50:00.254Z,13.85
2018-08-25T14:52:27.292Z,13.86
2018-08-25T14:54:56.228Z,13.59
2018-08-25T14:57:23.218Z,13.47
2018-08-25T14:59:50.479Z,13.36
2018-08-25T15:02:17.856Z,13.39
2018-08-25T15:04:45.098Z,13.36
2018-08-25T15:07:12.163Z,13.45
2018-08-25T15:09:39.259Z,13.50
2018-08-25T15:12:06.263Z,13.52
2018-08-25T15:14:33.355Z,13.52
2018-08-25T15:17:00.400Z,13.49
2018-08-25T15:19:27.647Z,13.63
2018-08-25T15:21:55.011Z,13.46
2018-08-25T15:24:22.438Z,13.63
2018-08-25T15:26:49.455Z,14.04
2018-08-25T15:29:16.453Z,14.22
2018-08-25T15:31:43.684Z,14.23
2018-08-25T15:34:10.669Z,14.33
2018-08-25T15:36:37.754Z,14.24
2018-08-25T15:39:09.045Z,14.33
2018-08-25T15:41:38.170Z,14.22
2018-08-25T15:44:05.386Z,14.47
2018-08-25T15:46:32.611Z,14.45
2018-08-25T15:48:59.627Z,14.39
2018-08-25T15:51:26.588Z,14.47
2018-08-25T15:53:53.721Z,14.69
2018-08-25T15:56:21.120Z,14.40
2018-08-25T15:58:48.092Z,14.24
2018-08-25T16:01:15.076Z,14.03
2018-08-25T16:03:42.269Z,14.02
2018-08-25T16:06:09.813Z,13.96
2018-08-25T16:08:36.827Z,14.05
2018-08-25T16:11:03.989Z,14.09
2018-08-25T16:13:30.993Z,13.96
2018-08-25T16:15:58.219Z,13.96
2018-08-25T16:18:25.316Z,14.10
2018-08-25T16:20:52.431Z,14.28
2018-08-25T16:23:19.561Z,14.28
2018-08-25T16:25:46.578Z,14.23
2018-08-25T16:28:13.770Z,14.30
2018-08-25T16:30:40.830Z,14.36
2018-08-25T16:33:08.165Z,14.34
2018-08-25T16:35:35.196Z,14.22
2018-08-25T16:38:02.271Z,14.24
2018-08-25T16:40:29.730Z,14.05
2018-08-25T16:42:56.851Z,14.11
2018-08-25T16:45:23.829Z,14.25
2018-08-25T16:47:50.880Z,14.30
2018-08-25T16:50:17.993Z,14.25
2018-08-25T16:52:45.007Z,14.24
2018-08-25T16:55:12.250Z,14.15
2018-08-25T16:57:39.616Z,14.17
2018-08-25T17:00:07.351Z,14.08
2018-08-25T17:02:34.508Z,14.07
2018-08-25T17:05:01.978Z,14.00
2018-08-25T17:07:29.097Z,14.03
2018-08-25T17:09:56.284Z,14.09
2018-08-25T17:12:23.357Z,13.98
2018-08-25T17:14:50.393Z,14.04
2018-08-25T17:17:19.968Z,13.97
2018-08-25T17:19:47.687Z,14.06
2018-08-25T17:22:16.109Z,13.98
2018-08-25T17:24:43.405Z,13.90
2018-08-25T17:27:10.472Z,13.84
2018-08-25T17:29:37.672Z,13.80
2018-08-25T17:32:05.052Z,13.66
2018-08-25T17:34:32.063Z,13.75
2018-08-25T17:37:00.913Z,13.67
2018-08-25T17:39:29.466Z,13.73
2018-08-25T17:41:58.205Z,13.75
2018-08-25T17:44:26.890Z,13.75
2018-08-25T17:46:55.795Z,13.67
2018-08-25T17:49:25.285Z,13.72
2018-08-25T17:51:52.465Z,13.59
2018-08-25T17:54:19.471Z,13.59
2018-08-25T17:56:46.569Z,13.49
2018-08-25T17:59:13.900Z,13.48
2018-08-25T18:01:40.923Z,13.40
2018-08-25T18:04:08.227Z,13.36
2018-08-25T18:06:35.344Z,13.28
2018-08-25T18:09:02.629Z,13.49
2018-08-25T18:11:29.644Z,13.42
2018-08-25T18:13:56.657Z,13.43
2018-08-25T18:16:24.216Z,13.53
2018-08-25T18:18:51.238Z,13.23
2018-08-25T18:21:18.264Z,13.24
2018-08-25T18:23:45.456Z,13.06
2018-08-25T18:26:13.417Z,13.04
2018-08-25T18:28:40.790Z,13.26
2018-08-25T18:31:07.931Z,13.08
2018-08-25T18:33:34.921Z,13.22
2018-08-25T18:36:02.403Z,13.03
2018-08-25T18:38:30.000Z,13.11
2018-08-25T18:40:57.057Z,13.02
2018-08-25T18:43:24.064Z,13.09
2018-08-25T18:45:51.235Z,13.08
2018-08-25T18:48:19.093Z,13.25
2018-08-25T18:50:46.409Z,13.21
2018-08-25T18:53:14.927Z,13.02
2018-08-25T18:55:42.136Z,13.05
2018-08-25T18:58:09.265Z,12.81
2018-08-25T19:00:36.496Z,12.82
2018-08-25T19:03:03.560Z,12.84
2018-08-25T19:05:30.984Z,12.82
2018-08-25T19:07:57.988Z,12.78
2018-08-25T19:10:25.131Z,12.52
2018-08-25T19:12:52.484Z,12.55
2018-08-25T19:15:19.517Z,12.51
2018-08-25T19:17:46.978Z,12.71
2018-08-25T19:20:14.194Z,12.51
2018-08-25T19:22:41.433Z,12.43
2018-08-25T19:25:08.811Z,12.35
2018-08-25T19:27:35.873Z,12.46
2018-08-25T19:30:03.009Z,12.48
2018-08-25T19:32:30.234Z,12.50
2018-08-25T19:34:57.676Z,12.43
2018-08-25T19:37:24.713Z,12.44
2018-08-25T19:39:51.799Z,12.59
2018-08-25T19:42:20.727Z,12.46
2018-08-25T19:44:47.979Z,12.46
2018-08-25T19:47:15.577Z,12.32
2018-08-25T19:49:42.621Z,12.46
2018-08-25T19:52:10.272Z,12.56
2018-08-25T19:54:37.703Z,12.54
2018-08-25T19:57:05.233Z,12.36
2018-08-25T19:59:32.345Z,12.38
2018-08-25T20:01:59.420Z,12.34
2018-08-25T20:04:26.681Z,12.22
2018-08-25T20:06:53.783Z,12.16
2018-08-25T20:09:21.016Z,12.09
2018-08-25T20:11:47.966Z,12.07
2018-08-25T20:14:16.437Z,11.98
2018-08-25T20:16:43.567Z,11.95
2018-08-25T20:19:10.701Z,11.89
2018-08-25T20:21:37.797Z,11.83
2018-08-25T20:24:04.833Z,11.76
2018-08-25T20:26:32.669Z,11.74
2018-08-25T20:29:00.296Z,11.76
2018-08-25T20:31:27.272Z,11.72
2018-08-25T20:33:56.663Z,11.71
2018-08-25T20:36:26.955Z,11.87
2018-08-25T20:38:54.871Z,11.84
2018-08-25T20:41:22.100Z,11.79
2018-08-25T20:43:50.048Z,11.70
2018-08-25T20:46:17.934Z,11.80
2018-08-25T20:48:45.943Z,11.70
2018-08-25T20:51:13.167Z,11.60
2018-08-25T20:53:40.515Z,11.51
2018-08-25T20:56:07.511Z,11.54
2018-08-25T20:58:37.616Z,11.47
2018-08-25T21:01:04.696Z,11.47
2018-08-25T21:03:31.878Z,11.37
2018-08-25T21:05:58.839Z,11.30
2018-08-25T21:08:25.918Z,11.21
2018-08-25T21:10:53.050Z,11.29
2018-08-25T21:13:20.025Z,11.27
2018-08-25T21:15:47.027Z,11.28
2018-08-25T21:18:14.055Z,11.26
2018-08-25T21:20:41.025Z,11.27
2018-08-25T21:23:08.359Z,11.26
2018-08-25T21:25:35.331Z,11.29
2018-08-25T21:28:02.347Z,11.23
2018-08-25T21:30:29.331Z,11.24
2018-08-25T21:32:56.443Z,11.21
2018-08-25T21:35:23.430Z,11.17
2018-08-25T21:37:50.740Z,11.16
2018-08-25T21:40:18.031Z,11.15
2018-08-25T21:42:45.427Z,11.13
2018-08-25T21:45:12.487Z,11.08
2018-08-25T21:47:42.957Z,11.07
2018-08-25T21:50:10.146Z,11.05
2018-08-25T21:52:37.119Z,11.06
2018-08-25T21:55:04.131Z,11.02
2018-08-25T21:57:31.433Z,11.00
2018-08-25T21:59:58.542Z,10.97
2018-08-25T22:02:25.643Z,10.93
2018-08-25T22:04:52.975Z,10.92
2018-08-25T22:07:20.119Z,10.96
2018-08-25T22:09:47.218Z,10.94
2018-08-25T22:12:14.158Z,10.90
2018-08-25T22:14:41.232Z,10.87
2018-08-25T22:17:08.214Z,10.78
2018-08-25T22:19:35.178Z,10.76
2018-08-25T22:22:03.175Z,10.79
2018-08-25T22:24:30.146Z,10.79
2018-08-25T22:26:57.111Z,10.74
2018-08-25T22:29:24.173Z,10.69
2018-08-25T22:31:51.139Z,10.63
2018-08-25T22:34:18.104Z,10.62
2018-08-25T22:36:46.109Z,10.62
2018-08-25T22:39:13.115Z,10.68
2018-08-25T22:41:40.129Z,10.66
2018-08-25T22:44:07.842Z,10.61
2018-08-25T22:46:34.860Z,10.59
2018-08-25T22:49:02.317Z,10.64
2018-08-25T22:51:29.706Z,10.60
2018-08-25T22:53:56.646Z,10.62
2018-08-25T22:56:23.628Z,10.59
2018-08-25T22:58:53.573Z,10.59
2018-08-25T23:01:20.734Z,10.57
2018-08-25T23:03:47.723Z,10.57
2018-08-25T23:06:14.987Z,10.57
2018-08-25T23:08:41.975Z,10.57
2018-08-25T23:11:09.910Z,10.56
2018-08-25T23:13:36.881Z,10.53
2018-08-25T23:16:03.968Z,10.54
2018-08-25T23:18:31.255Z,10.48
2018-08-25T23:20:58.429Z,10.47
2018-08-25T23:23:25.404Z,10.45
2018-08-25T23:25:52.482Z,10.46
2018-08-25T23:28:19.615Z,10.47
2018-08-25T23:30:47.107Z,10.45
2018-08-25T23:33:14.387Z,10.45
2018-08-25T23:35:41.706Z,10.45
2018-08-25T23:38:08.980Z,10.44
2018-08-25T23:40:36.739Z,10.50
2018-08-25T23:43:03.798Z,10.36
2018-08-25T23:45:30.831Z,10.32
2018-08-25T23:47:57.827Z,10.31
2018-08-25T23:50:24.877Z,10.32
2018-08-25T23:52:51.940Z,10.31
2018-08-25T23:55:19.243Z,10.38
2018-08-25T23:57:46.220Z,10.28
